Time;durP1;ratioP1;P1;durP2;ratioP2;P2;SDS_P1;SDS_P2;PMS_P1;PMS_P2;Temp;Humidity;BMP_temperature;BMP_pressure;BME280_temperature;BME280_humidity;BME280_pressure;Samples;Min_cycle;Max_cycle;Signal;HPM_P1;HPM_P2
2023/09/11 00:01:32;;;;;;;19.70;13.95;;;;;;;21.12;93.56;101307.16;5010253;28;20450;-88
2023/09/11 00:03:58;;;;;;;18.63;14.65;;;;;;;21.10;93.75;101306.41;5008083;28;20030;-87
2023/09/11 00:06:25;;;;;;;17.40;14.43;;;;;;;21.07;93.08;101299.53;4997843;28;20026;-87
2023/09/11 00:08:50;;;;;;;16.00;14.00;;;;;;;21.05;93.41;101293.47;4996485;28;20045;-87
2023/09/11 00:11:15;;;;;;;18.90;14.45;;;;;;;21.06;92.84;101291.69;4995360;28;20025;-87
2023/09/11 00:13:41;;;;;;;18.85;14.63;;;;;;;21.04;93.11;101288.28;4998044;28;20123;-87
2023/09/11 00:16:06;;;;;;;17.85;14.00;;;;;;;21.03;93.81;101289.22;5006190;28;20624;-87
2023/09/11 00:18:31;;;;;;;16.60;14.05;;;;;;;21.01;94.27;101289.31;5007578;28;20090;-87
2023/09/11 00:20:57;;;;;;;17.17;14.40;;;;;;;21.00;94.07;101292.06;4998293;28;20474;-87
2023/09/11 00:23:23;;;;;;;16.75;14.07;;;;;;;20.99;93.61;101285.94;5008881;28;20034;-87
2023/09/11 00:25:48;;;;;;;17.92;14.20;;;;;;;20.97;93.37;101284.31;5008345;28;20478;-88
2023/09/11 00:28:13;;;;;;;19.45;15.20;;;;;;;20.93;93.04;101281.03;5004520;28;20026;-87
2023/09/11 00:30:39;;;;;;;18.23;14.82;;;;;;;20.88;92.65;101272.53;4998539;28;20116;-86
2023/09/11 00:33:04;;;;;;;17.15;14.60;;;;;;;20.83;92.67;101274.63;4999376;28;20390;-87
2023/09/11 00:35:29;;;;;;;18.60;13.73;;;;;;;20.76;91.77;101275.00;4999561;28;20485;-87
2023/09/11 00:37:55;;;;;;;14.98;13.40;;;;;;;20.72;92.41;101273.44;5004633;28;20026;-87
2023/09/11 00:40:20;;;;;;;16.08;12.93;;;;;;;20.68;92.19;101271.94;5001526;28;20373;-88
2023/09/11 00:42:45;;;;;;;16.65;13.27;;;;;;;20.66;92.15;101278.25;4996188;28;20077;-87
2023/09/11 00:45:11;;;;;;;15.57;13.27;;;;;;;20.62;92.18;101272.31;4994966;28;20104;-87
2023/09/11 00:47:39;;;;;;;16.77;13.75;;;;;;;20.58;93.14;101271.66;5004818;28;20034;-87
2023/09/11 00:50:06;;;;;;;15.63;13.02;;;;;;;20.56;92.40;101272.69;5009056;28;20497;-87
2023/09/11 00:52:32;;;;;;;16.13;13.65;;;;;;;20.54;93.19;101274.56;4997838;28;20026;-87
2023/09/11 00:54:59;;;;;;;16.88;13.95;;;;;;;20.52;94.10;101271.19;4997819;28;20026;-87
2023/09/11 00:57:25;;;;;;;17.02;14.38;;;;;;;20.50;93.52;101262.47;5001027;28;20034;-88
2023/09/11 00:59:50;;;;;;;18.48;14.25;;;;;;;20.48;93.77;101265.22;5005304;28;20030;-87
2023/09/11 01:02:16;;;;;;;16.60;14.20;;;;;;;20.49;93.53;101271.38;5006926;28;20082;-87
2023/09/11 01:04:42;;;;;;;16.77;13.20;;;;;;;20.52;94.50;101268.53;5001855;28;20085;-87
2023/09/11 01:07:08;;;;;;;18.05;13.38;;;;;;;20.56;94.17;101270.91;4998415;28;20057;-87
2023/09/11 01:09:34;;;;;;;17.52;13.07;;;;;;;20.61;93.94;101267.97;4995801;28;20061;-87
2023/09/11 01:11:59;;;;;;;14.73;12.88;;;;;;;20.63;93.54;101269.56;4994950;28;20025;-87
2023/09/11 01:14:26;;;;;;;16.90;13.57;;;;;;;20.66;93.28;101267.69;5000949;28;20077;-87
2023/09/11 01:17:00;;;;;;;15.48;13.27;;;;;;;20.67;93.15;101264.09;5004714;28;20022;-87
2023/09/11 01:19:31;;;;;;;15.45;12.60;;;;;;;20.67;93.21;101256.19;5004861;28;20038;-87
2023/09/11 01:22:08;;;;;;;;;;;;;;;20.72;91.96;101259.41;5013442;28;20053;-87
2023/09/11 01:24:49;;;;;;;13.88;10.93;;;;;;;20.70;92.84;101264.75;4977972;28;19964;-87
2023/09/11 01:27:27;;;;;;;13.05;11.43;;;;;;;20.71;92.89;101261.16;5004916;28;20088;-87
2023/09/11 01:29:53;;;;;;;12.45;10.93;;;;;;;20.72;92.94;101262.03;4992767;28;20398;-87
2023/09/11 01:32:21;;;;;;;15.27;12.05;;;;;;;20.71;93.28;101266.47;5013068;28;20034;-87
2023/09/11 01:34:46;;;;;;;15.38;11.93;;;;;;;20.71;92.95;101261.16;5013684;28;20013;-87
2023/09/11 01:37:11;;;;;;;15.45;11.32;;;;;;;20.70;92.40;101256.81;5012830;28;20059;-87
2023/09/11 01:39:37;;;;;;;13.43;11.52;;;;;;;20.70;92.56;101263.91;5002551;28;20053;-87
2023/09/11 01:42:09;;;;;;;14.02;11.43;;;;;;;20.69;92.96;101262.22;4993191;28;20113;-87
2023/09/11 01:44:41;;;;;;;14.77;11.60;;;;;;;20.67;93.01;101258.81;4993844;28;20080;-88
2023/09/11 01:47:09;;;;;;;14.40;11.45;;;;;;;20.63;92.91;101263.44;4994437;28;20409;-87
2023/09/11 01:49:38;;;;;;;14.15;11.52;;;;;;;20.61;92.50;101262.69;4993660;28;20026;-87
2023/09/11 01:52:04;;;;;;;14.95;11.60;;;;;;;20.58;92.75;101254.94;5009477;28;20486;-87
2023/09/11 01:54:29;;;;;;;14.93;11.40;;;;;;;20.56;92.56;101256.84;5012450;28;20053;-84
2023/09/11 01:56:55;;;;;;;13.23;11.38;;;;;;;20.53;92.82;101251.72;5001142;28;20101;-87
2023/09/11 01:59:20;;;;;;;13.32;11.43;;;;;;;20.50;92.79;101252.78;5006997;28;20033;-87
2023/09/11 02:01:45;;;;;;;14.40;11.05;;;;;;;20.45;92.72;101255.72;5001199;28;20026;-87
2023/09/11 02:04:11;;;;;;;15.75;11.05;;;;;;;20.41;92.46;101256.84;5002916;28;20018;-87
2023/09/11 02:06:36;;;;;;;14.35;11.02;;;;;;;20.37;92.53;101257.94;5008729;28;20032;-87
2023/09/11 02:09:02;;;;;;;16.77;11.43;;;;;;;20.34;93.13;101254.66;5008872;28;20018;-87
2023/09/11 02:11:28;;;;;;;15.60;11.38;;;;;;;20.27;93.01;101251.53;5006611;28;20022;-87
2023/09/11 02:13:53;;;;;;;14.50;11.57;;;;;;;20.24;93.18;101251.72;4996869;28;20032;-87
2023/09/11 02:16:19;;;;;;;15.57;11.82;;;;;;;20.20;93.00;101247.56;5007670;28;20070;-87
2023/09/11 02:18:44;;;;;;;14.35;11.85;;;;;;;;;;4996454;28;20486;-87
2023/09/11 02:21:09;;;;;;;14.15;11.18;;;;;;;20.11;93.37;101246.31;4994713;28;20034;-86
2023/09/11 02:23:34;;;;;;;13.40;11.57;;;;;;;20.07;93.31;101239.53;4995818;28;20042;-86
2023/09/11 02:26:00;;;;;;;14.52;12.18;;;;;;;20.04;93.11;101243.19;4993729;28;20430;-87
2023/09/11 02:28:26;;;;;;;15.95;11.98;;;;;;;20.00;93.53;101233.75;5002462;28;20027;-87
2023/09/11 02:30:52;;;;;;;15.43;12.25;;;;;;;19.96;93.47;101237.53;4992365;28;20377;-87
2023/09/11 02:33:17;;;;;;;15.25;11.50;;;;;;;19.93;93.78;101227.13;4999664;28;20037;-88
2023/09/11 02:35:43;;;;;;;15.13;11.75;;;;;;;19.91;93.87;101239.59;5008491;28;20026;-87
2023/09/11 02:38:08;;;;;;;17.02;12.20;;;;;;;19.84;94.21;101226.69;5000679;28;20026;-87
2023/09/11 02:40:37;;;;;;;15.10;11.48;;;;;;;19.82;93.83;101230.38;5006788;28;20028;-87
2023/09/11 02:43:03;;;;;;;14.93;11.90;;;;;;;19.78;94.00;101235.00;5012951;28;20022;-87
2023/09/11 02:45:28;;;;;;;13.60;11.48;;;;;;;19.74;93.71;101228.19;5006154;28;20397;-87
2023/09/11 02:47:54;;;;;;;15.60;11.05;;;;;;;19.71;93.82;101217.81;4998645;28;20030;-87
2023/09/11 02:50:19;;;;;;;13.40;11.65;;;;;;;19.68;94.21;101224.13;5007285;28;20416;-87
2023/09/11 02:52:44;;;;;;;15.35;11.40;;;;;;;19.67;94.49;101226.84;4999682;28;20430;-87
2023/09/11 02:55:11;;;;;;;15.95;12.15;;;;;;;19.63;93.94;101227.97;5008156;28;20030;-87
2023/09/11 02:57:37;;;;;;;15.32;11.70;;;;;;;19.60;94.53;101225.50;4989924;28;20030;-87
2023/09/11 03:00:05;;;;;;;13.85;11.68;;;;;;;19.57;94.57;101229.16;5006021;28;20026;-87
2023/09/11 03:02:31;;;;;;;13.43;11.90;;;;;;;19.54;95.14;101227.56;4998401;28;20061;-87
2023/09/11 03:04:56;;;;;;;14.82;12.15;;;;;;;19.51;95.25;101222.44;5004216;28;20455;-87
2023/09/11 03:07:21;;;;;;;13.25;11.65;;;;;;;19.48;94.93;101221.78;5004551;28;20040;-87
2023/09/11 03:09:47;;;;;;;14.15;11.60;;;;;;;19.46;94.90;101216.59;5001424;28;20026;-88
2023/09/11 03:12:12;;;;;;;14.20;11.77;;;;;;;19.44;94.89;101215.84;4998191;28;20350;-87
2023/09/11 03:14:39;;;;;;;16.83;11.85;;;;;;;19.42;95.31;101217.72;5005489;28;20402;-87
2023/09/11 03:17:04;;;;;;;16.38;11.63;;;;;;;19.40;94.84;101209.03;5008123;28;20030;-87
2023/09/11 03:19:34;;;;;;;13.68;11.50;;;;;;;19.38;94.80;101205.63;5008137;28;20045;-87
2023/09/11 03:22:00;;;;;;;15.10;11.32;;;;;;;19.35;94.96;101205.78;4997866;28;20018;-87
2023/09/11 03:24:25;;;;;;;17.30;11.65;;;;;;;19.35;95.04;101211.06;5005955;28;20041;-87
2023/09/11 03:26:50;;;;;;;13.70;11.63;;;;;;;19.34;95.47;101212.00;5015519;28;20418;-87
2023/09/11 03:29:17;;;;;;;13.73;11.75;;;;;;;19.32;95.71;101195.41;5008268;28;20525;-87
2023/09/11 03:31:42;;;;;;;15.50;12.00;;;;;;;19.31;95.87;101204.25;5007141;28;20030;-87
2023/09/11 03:34:07;;;;;;;16.55;12.35;;;;;;;19.28;95.54;101200.03;5015820;28;20108;-87
2023/09/11 03:36:32;;;;;;;15.13;12.23;;;;;;;19.25;95.77;101200.19;5015828;28;20022;-87
2023/09/11 03:38:58;;;;;;;15.63;12.55;;;;;;;19.21;95.44;101198.69;4996275;28;20034;-87
2023/09/11 03:41:23;;;;;;;14.10;11.30;;;;;;;19.18;95.99;101189.13;4995966;28;20026;-86
2023/09/11 03:43:48;;;;;;;16.55;12.52;;;;;;;19.16;97.00;101191.00;4995178;28;20045;-87
2023/09/11 03:46:14;;;;;;;13.75;11.70;;;;;;;19.13;96.91;101191.19;4999576;28;20037;-87
2023/09/11 03:48:40;;;;;;;13.02;11.57;;;;;;;19.13;96.90;101190.34;4997146;28;20382;-87
2023/09/11 03:51:06;;;;;;;15.65;11.35;;;;;;;19.11;96.15;101187.81;4995829;28;20026;-87
2023/09/11 03:53:31;;;;;;;14.50;11.23;;;;;;;19.07;94.79;101186.25;4995738;28;20138;-87
2023/09/11 03:55:56;;;;;;;16.98;11.27;;;;;;;19.05;95.91;101177.59;4998992;28;20021;-86
2023/09/11 03:58:21;;;;;;;13.13;11.10;;;;;;;19.05;96.43;101172.31;5013401;28;20420;-87
2023/09/11 04:00:47;;;;;;;16.35;11.85;;;;;;;19.03;96.35;101163.63;5005006;28;20440;-87
2023/09/11 04:03:12;;;;;;;14.65;11.80;;;;;;;18.98;96.63;101163.91;5008382;28;20029;-87
2023/09/11 04:05:38;;;;;;;13.57;11.77;;;;;;;18.96;97.23;101169.25;5004554;28;20018;-87
2023/09/11 04:08:03;;;;;;;14.50;11.52;;;;;;;18.94;97.06;101165.88;5011440;28;20058;-87
2023/09/11 04:10:29;;;;;;;15.25;12.20;;;;;;;18.90;97.63;101159.03;4996268;28;20058;-87
2023/09/11 04:12:54;;;;;;;14.40;11.60;;;;;;;18.89;97.09;101157.31;5008954;28;20389;-87
2023/09/11 04:15:20;;;;;;;15.82;11.98;;;;;;;18.89;96.97;101156.47;5012497;28;20096;-87
2023/09/11 04:17:45;;;;;;;16.13;12.15;;;;;;;18.87;97.12;101153.09;5006180;28;20038;-87
2023/09/11 04:20:10;;;;;;;14.75;12.15;;;;;;;18.87;97.40;101158.34;5006357;28;20481;-86
2023/09/11 04:22:35;;;;;;;13.93;11.38;;;;;;;18.85;97.29;101155.78;4998680;28;20035;-87
2023/09/11 04:25:01;;;;;;;12.60;11.23;;;;;;;18.84;97.00;101154.09;5000680;28;20064;-87
2023/09/11 04:27:27;;;;;;;27.30;16.25;;;;;;;18.84;97.50;101154.09;4996272;28;20022;-87
2023/09/11 04:29:52;;;;;;;22.80;15.52;;;;;;;18.87;97.53;101153.91;5003835;28;20065;-87
2023/09/11 04:32:18;;;;;;;21.55;14.77;;;;;;;18.89;96.76;101145.91;5001986;28;20052;-87
2023/09/11 04:34:43;;;;;;;22.20;15.13;;;;;;;18.92;97.10;101140.47;5010458;28;20032;-88
2023/09/11 04:37:09;;;;;;;21.35;14.02;;;;;;;18.96;97.25;101140.25;5008717;28;20429;-87
2023/09/11 04:39:34;;;;;;;18.90;13.80;;;;;;;19.02;96.84;101144.34;5000450;28;20375;-88
2023/09/11 04:41:59;;;;;;;18.10;12.77;;;;;;;19.05;96.53;101140.69;5005235;28;20501;-87
2023/09/11 04:44:24;;;;;;;17.30;12.35;;;;;;;19.05;95.91;101148.59;4997132;28;20033;-88
2023/09/11 04:46:50;;;;;;;16.48;12.18;;;;;;;19.04;96.19;101142.47;5003721;28;20037;-87
2023/09/11 04:49:15;;;;;;;16.88;12.30;;;;;;;19.06;95.55;101147.66;5003248;28;20552;-87
2023/09/11 04:51:41;;;;;;;16.17;11.38;;;;;;;19.07;95.75;101154.63;5001074;28;20141;-87
2023/09/11 04:54:06;;;;;;;14.70;11.65;;;;;;;19.08;95.90;101146.63;5003052;28;20026;-86
2023/09/11 04:56:31;;;;;;;16.77;12.20;;;;;;;19.12;95.88;101157.84;4999919;28;20037;-87
2023/09/11 04:58:57;;;;;;;14.32;11.10;;;;;;;19.14;95.76;101153.31;5005474;28;20063;-88
2023/09/11 05:01:22;;;;;;;14.15;10.80;;;;;;;19.17;95.17;101154.94;5004032;28;20469;-88
2023/09/11 05:03:47;;;;;;;15.55;11.15;;;;;;;19.19;94.86;101155.72;4998311;28;20022;-88
2023/09/11 05:06:12;;;;;;;15.45;10.40;;;;;;;19.18;93.97;101161.94;4998224;28;20034;-88
2023/09/11 05:08:38;;;;;;;14.48;10.70;;;;;;;19.14;93.80;101150.69;4998757;28;20463;-88
2023/09/11 05:11:03;;;;;;;14.88;10.65;;;;;;;19.11;94.16;101157.00;4999948;28;20062;-88
2023/09/11 05:13:28;;;;;;;13.80;10.52;;;;;;;19.13;94.85;101158.69;4996128;28;20057;-88
2023/09/11 05:15:54;;;;;;;13.57;10.45;;;;;;;19.12;94.05;101160.50;4998779;28;20081;-88
2023/09/11 05:18:19;;;;;;;13.35;10.52;;;;;;;19.13;94.43;101170.06;5003190;28;20065;-88
2023/09/11 05:20:46;;;;;;;15.57;10.80;;;;;;;19.16;94.29;101167.28;5000040;28;20351;-89
2023/09/11 05:23:11;;;;;;;13.52;10.35;;;;;;;19.19;93.97;101158.34;4998841;28;20489;-88
2023/09/11 05:25:36;;;;;;;13.23;10.68;;;;;;;19.22;93.86;101164.28;5004378;28;20065;-88
2023/09/11 05:28:02;;;;;;;15.40;10.00;;;;;;;19.24;93.14;101159.78;5002987;28;20026;-88
2023/09/11 05:30:28;;;;;;;13.07;10.57;;;;;;;19.29;93.06;101163.97;5006373;28;20045;-88
2023/09/11 05:32:53;;;;;;;12.32;9.68;;;;;;;19.31;92.91;101159.41;5001320;28;20425;-88
2023/09/11 05:35:20;;;;;;;12.80;9.50;;;;;;;19.34;92.50;101161.88;5008989;28;20057;-89
2023/09/11 05:37:45;;;;;;;12.93;9.52;;;;;;;19.38;92.28;101168.69;4995773;28;20117;-89
2023/09/11 05:40:10;;;;;;;11.68;9.70;;;;;;;19.39;91.90;101159.84;5005009;28;20486;-88
2023/09/11 05:42:36;;;;;;;15.05;9.48;;;;;;;19.40;91.80;101157.09;4993626;28;20089;-88
2023/09/11 05:45:01;;;;;;;12.80;9.40;;;;;;;19.42;91.68;101162.31;5000959;28;20026;-88
2023/09/11 05:47:26;;;;;;;12.68;9.80;;;;;;;19.45;91.65;101164.78;4999482;28;20382;-89
2023/09/11 05:49:51;;;;;;;15.93;9.85;;;;;;;19.46;91.46;101166.47;5002400;28;20046;-88
2023/09/11 05:52:17;;;;;;;13.30;9.48;;;;;;;19.49;91.82;101178.63;5013188;28;20030;-88
2023/09/11 05:54:42;;;;;;;13.00;9.38;;;;;;;19.51;91.31;101174.94;4994009;28;20029;-89
2023/09/11 05:57:08;;;;;;;13.32;9.32;;;;;;;19.54;90.99;101174.78;5001572;28;20025;-88
2023/09/11 05:59:33;;;;;;;13.00;9.27;;;;;;;19.56;91.04;101178.19;4993284;28;20375;-88
2023/09/11 06:01:58;;;;;;;12.80;9.15;;;;;;;19.60;90.99;101178.00;4998990;28;20033;-88
2023/09/11 06:04:23;;;;;;;14.23;8.98;;;;;;;19.63;90.78;101176.03;4997547;28;20022;-88
2023/09/11 06:06:49;;;;;;;14.55;9.35;;;;;;;19.66;90.61;101174.97;5004279;28;20025;-89
2023/09/11 06:09:14;;;;;;;14.52;9.05;;;;;;;19.70;90.04;101176.50;5009666;28;20056;-89
2023/09/11 06:11:39;;;;;;;12.55;8.82;;;;;;;19.72;89.72;101177.28;5006776;28;20029;-88
2023/09/11 06:14:06;;;;;;;11.32;8.57;;;;;;;19.75;89.31;101187.66;5010367;28;20383;-89
2023/09/11 06:16:32;;;;;;;11.85;8.93;;;;;;;19.77;89.21;101188.41;5004337;28;20032;-86
2023/09/11 06:18:58;;;;;;;14.35;9.32;;;;;;;19.81;89.22;101189.06;5007539;28;20030;-86
2023/09/11 06:21:23;;;;;;;14.20;9.55;;;;;;;19.85;88.28;101195.88;5009300;28;20038;-88
2023/09/11 06:23:49;;;;;;;14.23;10.18;;;;;;;19.86;88.36;101189.66;5012520;28;20470;-90
2023/09/11 06:26:14;;;;;;;12.30;8.80;;;;;;;19.91;88.23;101197.34;5009716;28;20117;-88
2023/09/11 06:28:40;;;;;;;16.02;9.02;;;;;;;19.92;88.05;101191.13;5008554;28;20034;-86
2023/09/11 06:31:05;;;;;;;12.18;8.00;;;;;;;19.93;87.88;101200.72;5001842;28;20027;-85
2023/09/11 06:33:30;;;;;;;12.88;8.90;;;;;;;19.95;88.06;101201.50;5002440;28;20366;-86
2023/09/11 06:35:56;;;;;;;13.75;8.88;;;;;;;19.95;88.00;101198.84;5004824;28;20026;-88
2023/09/11 06:38:22;;;;;;;11.05;8.07;;;;;;;19.97;87.94;101196.97;5006819;28;20018;-89
2023/09/11 06:40:47;;;;;;;11.18;8.38;;;;;;;19.97;88.12;101205.72;5002365;28;20125;-89
2023/09/11 06:43:13;;;;;;;13.05;8.15;;;;;;;20.00;88.34;101202.91;5006249;28;20034;-91
2023/09/11 06:45:38;;;;;;;13.07;8.77;;;;;;;20.02;88.12;101201.03;4993477;28;20119;-91
2023/09/11 06:48:05;;;;;;;11.32;8.18;;;;;;;20.06;87.74;101206.97;5005148;28;20382;-87
2023/09/11 06:50:30;;;;;;;11.65;8.15;;;;;;;20.10;87.45;101203.22;5008315;28;20149;-89
2023/09/11 06:52:55;;;;;;;12.55;7.72;;;;;;;;;;5003476;28;20026;-88
2023/09/11 06:55:21;;;;;;;12.00;7.75;;;;;;;20.18;87.00;101205.38;5012583;28;20030;-88
2023/09/11 06:57:57;;;;;;;10.70;7.75;;;;;;;20.22;86.99;101206.03;4995442;28;20081;-88
2023/09/11 07:00:22;;;;;;;11.57;8.10;;;;;;;20.24;86.71;101193.59;5010785;28;20189;-89
2023/09/11 07:02:48;;;;;;;13.55;8.10;;;;;;;20.26;86.80;101192.53;5005770;28;20091;-88
2023/09/11 07:05:16;;;;;;;11.32;7.60;;;;;;;20.29;87.40;101186.25;4992498;28;20057;-88
2023/09/11 07:07:41;;;;;;;12.48;8.10;;;;;;;20.30;86.79;101190.59;5001552;28;20029;-88
2023/09/11 07:10:09;;;;;;;12.38;7.43;;;;;;;20.34;87.43;101197.34;5010341;28;20033;-88
2023/09/11 07:12:35;;;;;;;12.82;8.00;;;;;;;20.37;87.04;101198.97;5004579;28;20034;-87
2023/09/11 07:15:00;;;;;;;12.65;8.40;;;;;;;20.40;87.11;101194.34;5011701;28;20050;-87
2023/09/11 07:17:25;;;;;;;11.70;7.82;;;;;;;20.43;86.05;101195.94;5012011;28;20037;-90
2023/09/11 07:19:50;;;;;;;13.05;7.43;;;;;;;20.49;86.77;101197.38;5009826;28;20477;-88
2023/09/11 07:22:16;;;;;;;11.88;7.80;;;;;;;20.55;86.18;101199.63;5015604;28;20022;-88
2023/09/11 07:24:41;;;;;;;11.52;7.22;;;;;;;20.58;85.65;101194.16;5015518;28;20363;-87
2023/09/11 07:27:07;;;;;;;11.10;7.70;;;;;;;20.62;85.29;101191.22;5008033;28;20022;-88
2023/09/11 07:29:32;;;;;;;16.58;7.20;;;;;;;20.67;85.70;101185.63;5010218;28;20030;-86
2023/09/11 07:31:57;;;;;;;10.45;7.10;;;;;;;20.73;85.24;101190.53;5004386;28;20054;-89
2023/09/11 07:34:22;;;;;;;9.35;6.75;;;;;;;20.77;84.70;101186.78;4987970;28;20089;-87
2023/09/11 07:36:48;;;;;;;10.07;6.88;;;;;;;20.83;84.48;101187.38;5009639;28;20044;-86
2023/09/11 07:39:13;;;;;;;11.38;7.03;;;;;;;20.87;84.23;101187.06;5002935;28;20025;-86
2023/09/11 07:41:38;;;;;;;12.15;7.00;;;;;;;20.92;84.10;101195.53;5006638;28;20030;-86
2023/09/11 07:44:03;;;;;;;13.75;6.80;;;;;;;20.97;84.19;101192.63;4997741;28;20392;-87
2023/09/11 07:46:29;;;;;;;9.60;7.65;;;;;;;21.02;83.94;101193.13;5012940;28;20041;-85
2023/09/11 07:48:54;;;;;;;13.88;6.82;;;;;;;21.07;84.29;101199.00;5001997;28;20018;-85
2023/09/11 07:51:20;;;;;;;12.05;7.20;;;;;;;21.13;83.90;101196.91;5002017;28;20017;-87
2023/09/11 07:53:45;;;;;;;9.85;7.25;;;;;;;21.18;83.34;101195.66;5010071;28;20113;-88
2023/09/11 07:56:11;;;;;;;11.95;7.10;;;;;;;21.23;83.43;101201.50;5013188;28;20026;-90
2023/09/11 07:58:37;;;;;;;13.93;6.97;;;;;;;21.30;82.92;101201.09;5011151;28;20342;-87
2023/09/11 08:01:03;;;;;;;10.43;6.88;;;;;;;21.35;82.70;101207.75;5008570;28;20018;-84
2023/09/11 08:03:28;;;;;;;10.10;6.85;;;;;;;21.42;83.49;101202.09;5008051;28;20105;-84
2023/09/11 08:05:54;;;;;;;11.85;6.78;;;;;;;21.49;83.12;101198.09;5005727;28;20026;-84
2023/09/11 08:08:20;;;;;;;12.02;7.50;;;;;;;21.56;82.89;101214.41;5011919;28;20021;-88
2023/09/11 08:10:45;;;;;;;17.60;8.10;;;;;;;21.61;82.01;101220.25;5001166;28;20588;-86
2023/09/11 08:13:10;;;;;;;16.10;7.72;;;;;;;21.65;81.64;101219.09;4987260;28;20113;-86
2023/09/11 08:15:36;;;;;;;16.85;7.40;;;;;;;21.70;81.71;101224.09;5007002;28;20121;-86
2023/09/11 08:18:01;;;;;;;14.10;7.88;;;;;;;21.74;81.50;101226.47;5007802;28;20026;-86
2023/09/11 08:20:26;;;;;;;15.07;8.50;;;;;;;21.78;81.84;101225.28;5008594;28;20030;-87
2023/09/11 08:22:52;;;;;;;18.55;9.32;;;;;;;21.85;82.09;101225.75;5004646;28;20030;-90
2023/09/11 08:25:17;;;;;;;20.80;9.55;;;;;;;21.89;80.92;101226.38;5008379;28;20088;-87
2023/09/11 08:27:42;;;;;;;19.73;10.82;;;;;;;21.91;80.50;101220.00;4994621;28;20038;-87
2023/09/11 08:30:08;;;;;;;15.80;9.30;;;;;;;21.95;80.88;101221.50;5008057;28;20022;-86
2023/09/11 08:32:34;;;;;;;16.83;9.73;;;;;;;22.00;80.29;101218.53;4997491;28;20057;-87
2023/09/11 08:34:59;;;;;;;18.73;10.15;;;;;;;22.04;80.54;101216.50;4995776;28;20029;-89
2023/09/11 08:37:25;;;;;;;15.10;10.38;;;;;;;22.07;80.89;101218.94;5000847;28;20064;-89
2023/09/11 08:39:51;;;;;;;15.95;10.13;;;;;;;22.11;80.07;101231.03;4996504;28;20022;-87
2023/09/11 08:42:16;;;;;;;13.77;9.75;;;;;;;22.16;80.79;101228.94;4996769;28;20058;-91
2023/09/11 08:44:41;;;;;;;15.25;10.32;;;;;;;22.18;79.76;101227.03;5002095;28;20477;-90
2023/09/11 08:47:09;;;;;;;12.95;10.32;;;;;;;22.21;80.46;101225.97;4998896;28;20036;-87
2023/09/11 08:49:42;;;;;;;13.93;10.10;;;;;;;22.23;80.01;101219.59;4997939;28;20044;-89
2023/09/11 08:52:11;;;;;;;14.40;10.40;;;;;;;22.25;79.22;101223.00;4995005;28;20022;-87
2023/09/11 08:54:42;;;;;;;16.67;10.43;;;;;;;22.28;79.48;101219.28;5000644;28;20042;-86
2023/09/11 08:57:11;;;;;;;14.60;10.27;;;;;;;22.33;79.69;101221.63;5000416;28;20033;-85
2023/09/11 08:59:39;;;;;;;15.05;10.38;;;;;;;22.37;79.63;101225.75;5000886;28;20318;-85
2023/09/11 09:02:05;;;;;;;14.38;9.85;;;;;;;22.41;80.17;101222.78;4993403;28;20026;-86
2023/09/11 09:04:34;;;;;;;14.07;10.05;;;;;;;22.42;79.95;101228.94;4999549;28;20072;-85
2023/09/11 09:06:59;;;;;;;17.50;10.75;;;;;;;22.47;79.29;101224.19;4998177;28;20037;-85
2023/09/11 09:09:25;;;;;;;13.07;10.63;;;;;;;22.49;78.15;101230.22;4991826;28;20030;-88
2023/09/11 09:11:51;;;;;;;17.48;10.75;;;;;;;22.54;80.20;101237.84;4999351;28;20486;-89
2023/09/11 09:14:18;;;;;;;18.80;10.45;;;;;;;22.59;80.78;101228.59;4998556;28;20041;-92
2023/09/11 09:16:44;;;;;;;21.60;10.85;;;;;;;22.64;80.47;101216.84;4999190;28;20030;-91
2023/09/11 09:19:10;;;;;;;20.33;10.35;;;;;;;22.68;78.95;101223.63;4979928;28;20381;-88
2023/09/11 09:21:35;;;;;;;15.70;10.77;;;;;;;22.72;79.88;101219.78;4996852;28;20034;-90
2023/09/11 09:24:17;;;;;;;15.38;10.75;;;;;;;22.78;79.19;101215.88;4994455;28;20030;-90
2023/09/11 09:26:57;;;;;;;13.02;9.57;;;;;;;22.80;79.47;101220.09;4989586;28;20133;-89
2023/09/11 09:29:22;;;;;;;13.48;10.13;;;;;;;22.80;78.15;101214.78;4985558;28;20470;-88
2023/09/11 09:31:48;;;;;;;16.02;11.07;;;;;;;22.81;78.70;101212.97;4994920;28;20029;-87
2023/09/11 09:34:13;;;;;;;14.90;10.55;;;;;;;22.84;78.73;101223.34;4999510;28;20081;-86
2023/09/11 09:36:49;;;;;;;14.18;9.73;;;;;;;22.88;78.82;101222.19;4998753;28;20052;-87
2023/09/11 09:39:14;;;;;;;12.73;10.02;;;;;;;22.92;78.34;101223.66;4998385;28;20104;-86
2023/09/11 09:41:39;;;;;;;17.63;10.15;;;;;;;22.97;79.49;101218.03;4997792;28;20128;-89
2023/09/11 09:44:04;;;;;;;13.18;9.73;;;;;;;23.01;77.10;101219.50;5000121;28;20049;-83
2023/09/11 09:46:30;;;;;;;17.30;10.20;;;;;;;23.05;76.17;101226.28;5005104;28;20029;-87
2023/09/11 09:48:55;;;;;;;11.40;8.77;;;;;;;23.09;75.62;101227.72;5003687;28;20028;-87
2023/09/11 09:51:21;;;;;;;15.00;10.10;;;;;;;23.15;75.93;101221.13;4997646;28;20120;-88
2023/09/11 09:53:46;;;;;;;15.25;9.65;;;;;;;23.20;74.59;101224.31;4986405;28;20018;-88
2023/09/11 09:56:13;;;;;;;13.70;9.38;;;;;;;23.25;75.04;101216.03;4993614;28;20025;-89
2023/09/11 09:58:41;;;;;;;14.32;9.23;;;;;;;23.32;75.56;101214.63;4994503;28;20025;-87
2023/09/11 10:01:11;;;;;;;12.95;9.23;;;;;;;23.38;74.60;101222.16;4991339;28;20042;-86
2023/09/11 10:03:51;;;;;;;17.77;8.93;;;;;;;23.41;74.42;101211.25;4990432;28;20038;-85
2023/09/11 10:06:22;;;;;;;15.20;8.85;;;;;;;23.44;73.65;101216.34;4989265;28;20022;-87
2023/09/11 10:09:03;;;;;;;15.60;8.63;;;;;;;23.50;73.72;101209.72;4989362;28;20428;-87
2023/09/11 10:11:30;;;;;;;13.93;8.35;;;;;;;23.55;73.23;101204.94;4993874;28;20405;-87
2023/09/11 10:13:57;;;;;;;18.00;8.48;;;;;;;23.62;72.46;101210.63;4997376;28;20022;-87
2023/09/11 10:16:24;;;;;;;12.02;8.68;;;;;;;23.68;73.75;101217.28;4996419;28;20205;-87
2023/09/11 10:18:52;;;;;;;12.07;8.20;;;;;;;23.72;74.32;101216.94;4988852;28;20076;-87
2023/09/11 10:21:18;;;;;;;11.43;8.10;;;;;;;23.75;72.45;101211.38;4988254;28;20050;-87
2023/09/11 10:23:44;;;;;;;15.82;8.25;;;;;;;23.79;72.49;101206.72;4991194;28;20082;-88
2023/09/11 10:26:16;;;;;;;13.30;8.15;;;;;;;23.82;72.99;101203.81;4988335;28;20041;-86
2023/09/11 10:28:45;;;;;;;14.93;8.55;;;;;;;23.89;72.63;101212.16;4991268;28;20029;-89
2023/09/11 10:31:20;;;;;;;12.73;7.47;;;;;;;23.92;72.97;101215.41;4993263;28;20037;-88
2023/09/11 10:33:49;;;;;;;11.18;7.68;;;;;;;23.96;71.56;101205.41;4992304;28;20082;-85
2023/09/11 10:36:19;;;;;;;12.98;7.50;;;;;;;24.01;70.26;101210.38;4974113;28;20473;-87
2023/09/11 10:38:46;;;;;;;10.02;7.18;;;;;;;24.05;70.05;101207.38;4972943;28;20069;-87
2023/09/11 10:41:12;;;;;;;12.38;7.18;;;;;;;24.09;71.06;101206.16;4991178;28;20035;-87
2023/09/11 10:43:38;;;;;;;10.63;7.30;;;;;;;24.15;70.19;101206.66;4990360;28;20038;-88
2023/09/11 10:46:21;;;;;;;11.30;7.25;;;;;;;24.22;71.38;101205.22;4996463;28;20105;-87
2023/09/11 10:48:46;;;;;;;10.77;7.38;;;;;;;24.27;70.90;101203.03;4996552;28;20051;-91
2023/09/11 10:51:13;;;;;;;12.57;7.55;;;;;;;24.30;69.36;101202.81;4995263;28;20394;-90
2023/09/11 10:53:40;;;;;;;11.38;6.97;;;;;;;24.32;68.48;101203.53;4986363;28;20044;-92
2023/09/11 10:56:07;;;;;;;9.73;6.60;;;;;;;24.35;70.53;101210.41;4996421;28;20025;-91
2023/09/11 10:58:33;;;;;;;13.23;7.60;;;;;;;24.36;69.38;101205.00;4998843;28;20485;-91
2023/09/11 11:00:58;;;;;;;11.90;7.75;;;;;;;24.40;69.47;101208.25;5000005;28;20044;-91
2023/09/11 11:03:25;;;;;;;11.65;7.60;;;;;;;24.42;68.49;101197.50;5001673;28;20563;-91
2023/09/11 11:05:54;;;;;;;9.95;7.13;;;;;;;24.44;68.96;101192.88;5003726;28;20019;-90
2023/09/11 11:08:20;;;;;;;11.68;7.18;;;;;;;24.52;68.28;101193.13;5002741;28;20053;-91
2023/09/11 11:10:47;;;;;;;9.10;6.38;;;;;;;24.57;67.43;101193.63;4996876;28;21051;-92